sensor_id;sensor_type;location;lat;lon;timestamp;P1;durP1;ratioP1;P2;durP2;ratioP2
73697;SDS011;62004;42.566;23.164;2022-08-19T00:01:07;6.47;;;5.97;;
73697;SDS011;62004;42.566;23.164;2022-08-19T00:03:33;6.80;;;6.00;;
73697;SDS011;62004;42.566;23.164;2022-08-19T00:05:58;6.00;;;5.50;;
73697;SDS011;62004;42.566;23.164;2022-08-19T00:08:24;6.50;;;5.90;;
73697;SDS011;62004;42.566;23.164;2022-08-19T00:10:50;6.13;;;5.63;;
73697;SDS011;62004;42.566;23.164;2022-08-19T00:13:16;5.65;;;5.25;;
73697;SDS011;62004;42.566;23.164;2022-08-19T00:15:41;5.50;;;5.10;;
73697;SDS011;62004;42.566;23.164;2022-08-19T00:18:10;5.63;;;5.13;;
73697;SDS011;62004;42.566;23.164;2022-08-19T00:20:36;5.47;;;5.07;;
73697;SDS011;62004;42.566;23.164;2022-08-19T00:23:05;6.40;;;5.90;;
73697;SDS011;62004;42.566;23.164;2022-08-19T00:25:31;5.93;;;5.43;;
73697;SDS011;62004;42.566;23.164;2022-08-19T00:27:57;5.95;;;5.35;;
73697;SDS011;62004;42.566;23.164;2022-08-19T00:30:23;6.07;;;5.57;;
73697;SDS011;62004;42.566;23.164;2022-08-19T00:32:52;6.35;;;5.75;;
73697;SDS011;62004;42.566;23.164;2022-08-19T00:35:19;6.10;;;5.60;;
73697;SDS011;62004;42.566;23.164;2022-08-19T00:37:46;6.70;;;6.10;;
73697;SDS011;62004;42.566;23.164;2022-08-19T00:40:12;6.00;;;5.40;;
73697;SDS011;62004;42.566;23.164;2022-08-19T00:42:38;6.18;;;5.60;;
73697;SDS011;62004;42.566;23.164;2022-08-19T00:45:09;6.32;;;5.45;;
73697;SDS011;62004;42.566;23.164;2022-08-19T00:47:36;6.80;;;6.20;;
73697;SDS011;62004;42.566;23.164;2022-08-19T00:50:02;6.50;;;5.63;;
73697;SDS011;62004;42.566;23.164;2022-08-19T00:52:38;6.95;;;5.30;;
73697;SDS011;62004;42.566;23.164;2022-08-19T00:55:10;6.18;;;5.68;;
73697;SDS011;62004;42.566;23.164;2022-08-19T00:57:40;6.78;;;6.07;;
73697;SDS011;62004;42.566;23.164;2022-08-19T01:00:08;7.55;;;5.75;;
73697;SDS011;62004;42.566;23.164;2022-08-19T01:02:37;7.22;;;5.85;;
73697;SDS011;62004;42.566;23.164;2022-08-19T01:05:05;6.78;;;6.07;;
73697;SDS011;62004;42.566;23.164;2022-08-19T01:07:32;6.00;;;5.40;;
73697;SDS011;62004;42.566;23.164;2022-08-19T01:09:59;6.50;;;5.90;;
73697;SDS011;62004;42.566;23.164;2022-08-19T01:12:25;5.82;;;5.32;;
73697;SDS011;62004;42.566;23.164;2022-08-19T01:14:50;6.07;;;5.32;;
73697;SDS011;62004;42.566;23.164;2022-08-19T01:17:17;5.75;;;5.18;;
73697;SDS011;62004;42.566;23.164;2022-08-19T01:19:43;5.47;;;4.97;;
73697;SDS011;62004;42.566;23.164;2022-08-19T01:24:49;5.50;;;4.97;;
73697;SDS011;62004;42.566;23.164;2022-08-19T01:27:16;5.90;;;5.40;;
73697;SDS011;62004;42.566;23.164;2022-08-19T01:29:43;5.95;;;5.45;;
73697;SDS011;62004;42.566;23.164;2022-08-19T01:32:14;7.38;;;5.97;;
73697;SDS011;62004;42.566;23.164;2022-08-19T01:34:41;6.70;;;6.13;;
73697;SDS011;62004;42.566;23.164;2022-08-19T01:37:11;6.70;;;5.82;;
73697;SDS011;62004;42.566;23.164;2022-08-19T01:39:39;6.28;;;5.65;;
73697;SDS011;62004;42.566;23.164;2022-08-19T01:42:05;6.20;;;5.72;;
73697;SDS011;62004;42.566;23.164;2022-08-19T01:44:33;5.80;;;5.30;;
73697;SDS011;62004;42.566;23.164;2022-08-19T01:47:01;6.88;;;5.65;;
73697;SDS011;62004;42.566;23.164;2022-08-19T01:49:28;6.82;;;6.32;;
73697;SDS011;62004;42.566;23.164;2022-08-19T01:51:53;6.30;;;5.80;;
73697;SDS011;62004;42.566;23.164;2022-08-19T01:54:19;5.50;;;5.05;;
73697;SDS011;62004;42.566;23.164;2022-08-19T01:56:46;6.18;;;5.68;;
73697;SDS011;62004;42.566;23.164;2022-08-19T01:59:14;6.07;;;5.57;;
73697;SDS011;62004;42.566;23.164;2022-08-19T02:01:41;6.40;;;5.80;;
73697;SDS011;62004;42.566;23.164;2022-08-19T02:04:07;6.03;;;5.53;;
73697;SDS011;62004;42.566;23.164;2022-08-19T02:06:32;6.75;;;6.07;;
73697;SDS011;62004;42.566;23.164;2022-08-19T02:08:58;6.38;;;5.28;;
73697;SDS011;62004;42.566;23.164;2022-08-19T02:11:28;6.30;;;5.70;;
73697;SDS011;62004;42.566;23.164;2022-08-19T02:13:57;5.88;;;5.38;;
73697;SDS011;62004;42.566;23.164;2022-08-19T02:16:23;5.93;;;5.32;;
73697;SDS011;62004;42.566;23.164;2022-08-19T02:18:49;6.22;;;5.38;;
73697;SDS011;62004;42.566;23.164;2022-08-19T02:21:19;7.93;;;5.65;;
73697;SDS011;62004;42.566;23.164;2022-08-19T02:23:45;5.57;;;5.07;;
73697;SDS011;62004;42.566;23.164;2022-08-19T02:26:11;5.88;;;5.38;;
73697;SDS011;62004;42.566;23.164;2022-08-19T02:28:38;7.60;;;5.80;;
73697;SDS011;62004;42.566;23.164;2022-08-19T02:31:09;6.10;;;5.40;;
73697;SDS011;62004;42.566;23.164;2022-08-19T02:33:36;5.57;;;5.05;;
73697;SDS011;62004;42.566;23.164;2022-08-19T02:36:03;5.70;;;5.20;;
73697;SDS011;62004;42.566;23.164;2022-08-19T02:38:29;5.20;;;4.75;;
73697;SDS011;62004;42.566;23.164;2022-08-19T02:40:56;5.60;;;5.07;;
73697;SDS011;62004;42.566;23.164;2022-08-19T02:43:24;5.97;;;5.43;;
73697;SDS011;62004;42.566;23.164;2022-08-19T02:45:51;5.78;;;5.38;;
73697;SDS011;62004;42.566;23.164;2022-08-19T02:48:20;5.80;;;5.25;;
73697;SDS011;62004;42.566;23.164;2022-08-19T02:50:48;6.05;;;5.30;;
73697;SDS011;62004;42.566;23.164;2022-08-19T02:53:19;6.97;;;5.30;;
73697;SDS011;62004;42.566;23.164;2022-08-19T02:55:47;7.68;;;5.57;;
73697;SDS011;62004;42.566;23.164;2022-08-19T02:58:13;5.78;;;5.20;;
73697;SDS011;62004;42.566;23.164;2022-08-19T03:00:43;6.20;;;5.57;;
73697;SDS011;62004;42.566;23.164;2022-08-19T03:03:09;6.45;;;5.30;;
73697;SDS011;62004;42.566;23.164;2022-08-19T03:05:35;6.75;;;6.13;;
73697;SDS011;62004;42.566;23.164;2022-08-19T03:08:01;6.80;;;5.45;;
73697;SDS011;62004;42.566;23.164;2022-08-19T03:10:26;6.55;;;5.30;;
73697;SDS011;62004;42.566;23.164;2022-08-19T03:12:52;6.07;;;5.47;;
73697;SDS011;62004;42.566;23.164;2022-08-19T03:15:17;7.95;;;6.70;;
73697;SDS011;62004;42.566;23.164;2022-08-19T03:17:43;6.80;;;5.90;;
73697;SDS011;62004;42.566;23.164;2022-08-19T03:20:08;5.82;;;5.32;;
73697;SDS011;62004;42.566;23.164;2022-08-19T03:22:34;7.13;;;5.68;;
73697;SDS011;62004;42.566;23.164;2022-08-19T03:24:59;8.35;;;5.43;;
73697;SDS011;62004;42.566;23.164;2022-08-19T03:27:25;6.38;;;5.53;;
73697;SDS011;62004;42.566;23.164;2022-08-19T03:29:50;5.53;;;5.03;;
73697;SDS011;62004;42.566;23.164;2022-08-19T03:32:16;7.05;;;6.32;;
73697;SDS011;62004;42.566;23.164;2022-08-19T03:34:41;6.13;;;5.53;;
73697;SDS011;62004;42.566;23.164;2022-08-19T03:37:08;5.35;;;4.85;;
73697;SDS011;62004;42.566;23.164;2022-08-19T03:39:38;4.05;;;3.70;;
73697;SDS011;62004;42.566;23.164;2022-08-19T03:42:04;5.15;;;4.75;;
73697;SDS011;62004;42.566;23.164;2022-08-19T03:44:30;6.68;;;5.38;;
73697;SDS011;62004;42.566;23.164;2022-08-19T03:46:57;5.70;;;5.20;;
73697;SDS011;62004;42.566;23.164;2022-08-19T03:49:25;6.03;;;5.18;;
73697;SDS011;62004;42.566;23.164;2022-08-19T03:51:52;5.60;;;4.38;;
73697;SDS011;62004;42.566;23.164;2022-08-19T03:54:19;6.05;;;4.75;;
73697;SDS011;62004;42.566;23.164;2022-08-19T03:56:46;5.20;;;4.80;;
73697;SDS011;62004;42.566;23.164;2022-08-19T03:59:16;5.03;;;4.63;;
73697;SDS011;62004;42.566;23.164;2022-08-19T04:01:45;5.60;;;4.97;;
73697;SDS011;62004;42.566;23.164;2022-08-19T04:04:11;6.35;;;5.22;;
73697;SDS011;62004;42.566;23.164;2022-08-19T04:06:37;7.18;;;4.88;;
73697;SDS011;62004;42.566;23.164;2022-08-19T04:09:04;5.55;;;4.82;;
73697;SDS011;62004;42.566;23.164;2022-08-19T04:11:35;6.28;;;4.60;;
73697;SDS011;62004;42.566;23.164;2022-08-19T04:14:05;4.93;;;4.53;;
73697;SDS011;62004;42.566;23.164;2022-08-19T04:16:31;7.15;;;5.22;;
73697;SDS011;62004;42.566;23.164;2022-08-19T04:18:56;5.10;;;4.70;;
73697;SDS011;62004;42.566;23.164;2022-08-19T04:21:26;7.18;;;6.00;;
73697;SDS011;62004;42.566;23.164;2022-08-19T04:23:52;5.22;;;4.72;;
73697;SDS011;62004;42.566;23.164;2022-08-19T04:26:20;7.22;;;4.68;;
73697;SDS011;62004;42.566;23.164;2022-08-19T04:28:47;6.05;;;5.45;;
73697;SDS011;62004;42.566;23.164;2022-08-19T04:31:17;7.10;;;4.72;;
73697;SDS011;62004;42.566;23.164;2022-08-19T04:33:44;5.10;;;4.70;;
73697;SDS011;62004;42.566;23.164;2022-08-19T04:36:17;5.03;;;4.63;;
73697;SDS011;62004;42.566;23.164;2022-08-19T04:38:50;6.78;;;4.97;;
73697;SDS011;62004;42.566;23.164;2022-08-19T04:41:18;5.07;;;4.60;;
73697;SDS011;62004;42.566;23.164;2022-08-19T04:44:02;5.55;;;5.05;;
73697;SDS011;62004;42.566;23.164;2022-08-19T04:46:28;6.18;;;4.82;;
73697;SDS011;62004;42.566;23.164;2022-08-19T04:48:55;5.18;;;4.75;;
73697;SDS011;62004;42.566;23.164;2022-08-19T04:51:22;5.47;;;4.70;;
73697;SDS011;62004;42.566;23.164;2022-08-19T04:53:47;7.90;;;5.90;;
73697;SDS011;62004;42.566;23.164;2022-08-19T04:56:14;6.28;;;4.32;;
73697;SDS011;62004;42.566;23.164;2022-08-19T04:58:42;5.45;;;4.95;;
73697;SDS011;62004;42.566;23.164;2022-08-19T05:01:26;5.60;;;5.10;;
73697;SDS011;62004;42.566;23.164;2022-08-19T05:03:53;7.35;;;4.80;;
73697;SDS011;62004;42.566;23.164;2022-08-19T05:06:20;7.03;;;5.05;;
73697;SDS011;62004;42.566;23.164;2022-08-19T05:08:46;5.38;;;4.85;;
73697;SDS011;62004;42.566;23.164;2022-08-19T05:11:16;5.57;;;4.90;;
73697;SDS011;62004;42.566;23.164;2022-08-19T05:13:47;5.28;;;4.88;;
73697;SDS011;62004;42.566;23.164;2022-08-19T05:16:14;7.63;;;4.07;;
73697;SDS011;62004;42.566;23.164;2022-08-19T05:18:41;4.90;;;4.25;;
73697;SDS011;62004;42.566;23.164;2022-08-19T05:21:26;6.90;;;4.55;;
73697;SDS011;62004;42.566;23.164;2022-08-19T05:24:10;5.22;;;4.72;;
73697;SDS011;62004;42.566;23.164;2022-08-19T05:26:38;5.97;;;5.07;;
73697;SDS011;62004;42.566;23.164;2022-08-19T05:29:04;5.53;;;4.95;;
73697;SDS011;62004;42.566;23.164;2022-08-19T05:31:30;5.10;;;4.50;;
73697;SDS011;62004;42.566;23.164;2022-08-19T05:33:56;7.28;;;4.43;;
73697;SDS011;62004;42.566;23.164;2022-08-19T05:36:24;5.25;;;4.75;;
73697;SDS011;62004;42.566;23.164;2022-08-19T05:38:50;5.63;;;4.93;;
73697;SDS011;62004;42.566;23.164;2022-08-19T05:41:17;4.97;;;4.45;;
73697;SDS011;62004;42.566;23.164;2022-08-19T05:43:42;5.05;;;4.55;;
73697;SDS011;62004;42.566;23.164;2022-08-19T05:46:08;6.90;;;4.32;;
73697;SDS011;62004;42.566;23.164;2022-08-19T05:48:33;6.78;;;5.03;;
73697;SDS011;62004;42.566;23.164;2022-08-19T05:51:03;7.97;;;5.22;;
73697;SDS011;62004;42.566;23.164;2022-08-19T05:53:31;5.63;;;4.85;;
73697;SDS011;62004;42.566;23.164;2022-08-19T05:55:57;4.57;;;4.28;;
73697;SDS011;62004;42.566;23.164;2022-08-19T05:58:22;5.43;;;4.72;;
73697;SDS011;62004;42.566;23.164;2022-08-19T06:00:51;7.28;;;4.80;;
73697;SDS011;62004;42.566;23.164;2022-08-19T06:03:17;8.55;;;5.95;;
73697;SDS011;62004;42.566;23.164;2022-08-19T06:05:42;6.00;;;5.40;;
73697;SDS011;62004;42.566;23.164;2022-08-19T06:08:08;6.35;;;5.75;;
73697;SDS011;62004;42.566;23.164;2022-08-19T06:10:33;5.75;;;5.05;;
73697;SDS011;62004;42.566;23.164;2022-08-19T06:12:59;5.30;;;4.80;;
73697;SDS011;62004;42.566;23.164;2022-08-19T06:15:24;6.45;;;4.95;;
73697;SDS011;62004;42.566;23.164;2022-08-19T06:17:52;11.68;;;6.95;;
73697;SDS011;62004;42.566;23.164;2022-08-19T06:20:18;7.18;;;6.55;;
73697;SDS011;62004;42.566;23.164;2022-08-19T06:22:45;9.60;;;6.82;;
73697;SDS011;62004;42.566;23.164;2022-08-19T06:25:12;8.63;;;7.00;;
73697;SDS011;62004;42.566;23.164;2022-08-19T06:27:39;8.13;;;6.75;;
73697;SDS011;62004;42.566;23.164;2022-08-19T06:30:05;7.25;;;6.50;;
73697;SDS011;62004;42.566;23.164;2022-08-19T06:32:31;6.97;;;6.38;;
73697;SDS011;62004;42.566;23.164;2022-08-19T06:34:56;7.18;;;6.47;;
73697;SDS011;62004;42.566;23.164;2022-08-19T06:37:22;7.25;;;6.63;;
73697;SDS011;62004;42.566;23.164;2022-08-19T06:39:48;6.53;;;6.03;;
73697;SDS011;62004;42.566;23.164;2022-08-19T06:42:14;7.50;;;6.80;;
73697;SDS011;62004;42.566;23.164;2022-08-19T06:44:43;10.95;;;6.07;;
73697;SDS011;62004;42.566;23.164;2022-08-19T06:47:12;7.07;;;6.38;;
73697;SDS011;62004;42.566;23.164;2022-08-19T06:49:40;8.98;;;5.97;;
73697;SDS011;62004;42.566;23.164;2022-08-19T06:52:06;5.47;;;5.15;;
73697;SDS011;62004;42.566;23.164;2022-08-19T06:54:31;6.57;;;5.90;;
73697;SDS011;62004;42.566;23.164;2022-08-19T06:57:00;6.53;;;5.95;;
73697;SDS011;62004;42.566;23.164;2022-08-19T06:59:29;6.20;;;5.68;;
73697;SDS011;62004;42.566;23.164;2022-08-19T07:01:58;5.80;;;5.45;;
73697;SDS011;62004;42.566;23.164;2022-08-19T07:04:26;6.57;;;5.97;;
73697;SDS011;62004;42.566;23.164;2022-08-19T07:07:14;6.70;;;6.18;;
73697;SDS011;62004;42.566;23.164;2022-08-19T07:09:41;6.93;;;6.20;;
73697;SDS011;62004;42.566;23.164;2022-08-19T07:12:09;6.70;;;6.35;;
73697;SDS011;62004;42.566;23.164;2022-08-19T07:14:36;6.72;;;6.32;;
73697;SDS011;62004;42.566;23.164;2022-08-19T07:17:02;7.35;;;6.75;;
73697;SDS011;62004;42.566;23.164;2022-08-19T07:19:30;5.85;;;5.13;;
73697;SDS011;62004;42.566;23.164;2022-08-19T07:21:56;6.30;;;5.85;;
73697;SDS011;62004;42.566;23.164;2022-08-19T07:24:25;7.38;;;6.75;;
73697;SDS011;62004;42.566;23.164;2022-08-19T07:26:51;7.40;;;6.85;;
73697;SDS011;62004;42.566;23.164;2022-08-19T07:29:18;6.97;;;6.38;;
73697;SDS011;62004;42.566;23.164;2022-08-19T07:31:48;7.00;;;6.32;;
73697;SDS011;62004;42.566;23.164;2022-08-19T07:34:15;5.60;;;5.10;;
73697;SDS011;62004;42.566;23.164;2022-08-19T07:36:41;6.75;;;6.18;;
73697;SDS011;62004;42.566;23.164;2022-08-19T07:39:09;5.43;;;5.03;;
73697;SDS011;62004;42.566;23.164;2022-08-19T07:41:40;6.80;;;5.60;;
73697;SDS011;62004;42.566;23.164;2022-08-19T07:44:06;6.80;;;4.68;;
73697;SDS011;62004;42.566;23.164;2022-08-19T07:46:34;5.63;;;4.57;;
73697;SDS011;62004;42.566;23.164;2022-08-19T07:49:02;6.65;;;5.93;;
73697;SDS011;62004;42.566;23.164;2022-08-19T07:51:28;6.82;;;5.95;;
73697;SDS011;62004;42.566;23.164;2022-08-19T07:53:54;7.90;;;7.20;;
73697;SDS011;62004;42.566;23.164;2022-08-19T07:56:20;16.38;;;14.20;;
73697;SDS011;62004;42.566;23.164;2022-08-19T07:58:47;35.00;;;31.58;;
73697;SDS011;62004;42.566;23.164;2022-08-19T08:01:18;18.58;;;16.70;;
73697;SDS011;62004;42.566;23.164;2022-08-19T08:03:46;18.60;;;16.52;;
73697;SDS011;62004;42.566;23.164;2022-08-19T08:06:31;13.93;;;12.63;;
73697;SDS011;62004;42.566;23.164;2022-08-19T08:09:18;47.65;;;42.42;;
73697;SDS011;62004;42.566;23.164;2022-08-19T08:11:52;37.33;;;32.00;;
73697;SDS011;62004;42.566;23.164;2022-08-19T08:14:21;38.40;;;31.70;;
73697;SDS011;62004;42.566;23.164;2022-08-19T08:16:49;16.13;;;13.02;;
73697;SDS011;62004;42.566;23.164;2022-08-19T08:19:17;13.07;;;11.75;;
73697;SDS011;62004;42.566;23.164;2022-08-19T08:21:48;27.27;;;24.38;;
73697;SDS011;62004;42.566;23.164;2022-08-19T08:24:14;39.08;;;34.10;;
73697;SDS011;62004;42.566;23.164;2022-08-19T08:26:39;27.20;;;21.25;;
73697;SDS011;62004;42.566;23.164;2022-08-19T08:29:05;35.30;;;30.65;;
73697;SDS011;62004;42.566;23.164;2022-08-19T08:31:33;24.90;;;20.38;;
73697;SDS011;62004;42.566;23.164;2022-08-19T08:33:59;45.65;;;40.75;;
73697;SDS011;62004;42.566;23.164;2022-08-19T08:36:26;27.30;;;23.23;;
73697;SDS011;62004;42.566;23.164;2022-08-19T08:38:52;32.63;;;26.15;;
73697;SDS011;62004;42.566;23.164;2022-08-19T08:41:23;9.00;;;6.57;;
73697;SDS011;62004;42.566;23.164;2022-08-19T08:43:53;28.33;;;23.80;;
73697;SDS011;62004;42.566;23.164;2022-08-19T08:46:43;30.00;;;26.58;;
73697;SDS011;62004;42.566;23.164;2022-08-19T08:49:26;38.40;;;33.92;;
73697;SDS011;62004;42.566;23.164;2022-08-19T08:54:30;24.05;;;20.15;;
73697;SDS011;62004;42.566;23.164;2022-08-19T08:56:59;35.45;;;31.35;;
73697;SDS011;62004;42.566;23.164;2022-08-19T08:59:30;14.95;;;12.65;;
73697;SDS011;62004;42.566;23.164;2022-08-19T09:01:59;13.43;;;10.00;;
73697;SDS011;62004;42.566;23.164;2022-08-19T09:04:26;9.82;;;8.00;;
73697;SDS011;62004;42.566;23.164;2022-08-19T09:09:30;6.32;;;5.43;;
73697;SDS011;62004;42.566;23.164;2022-08-19T09:15:04;8.43;;;5.22;;
73697;SDS011;62004;42.566;23.164;2022-08-19T09:17:38;6.15;;;5.40;;
73697;SDS011;62004;42.566;23.164;2022-08-19T09:20:06;9.48;;;;;
73697;SDS011;62004;42.566;23.164;2022-08-19T09:22:38;6.25;;;5.25;;
73697;SDS011;62004;42.566;23.164;2022-08-19T09:25:07;8.82;;;5.63;;
73697;SDS011;62004;42.566;23.164;2022-08-19T09:27:35;5.47;;;4.90;;
73697;SDS011;62004;42.566;23.164;2022-08-19T09:30:05;5.65;;;5.20;;
73697;SDS011;62004;42.566;23.164;2022-08-19T09:32:35;18.02;;;5.57;;
73697;SDS011;62004;42.566;23.164;2022-08-19T09:35:02;21.20;;;7.20;;
73697;SDS011;62004;42.566;23.164;2022-08-19T09:37:27;5.15;;;4.18;;
73697;SDS011;62004;42.566;23.164;2022-08-19T09:39:53;18.17;;;8.32;;
73697;SDS011;62004;42.566;23.164;2022-08-19T09:42:19;44.05;;;24.17;;
73697;SDS011;62004;42.566;23.164;2022-08-19T09:44:46;8.80;;;7.18;;
73697;SDS011;62004;42.566;23.164;2022-08-19T09:47:12;46.83;;;30.70;;
73697;SDS011;62004;42.566;23.164;2022-08-19T09:49:38;22.35;;;18.08;;
73697;SDS011;62004;42.566;23.164;2022-08-19T09:52:04;7.85;;;6.50;;
73697;SDS011;62004;42.566;23.164;2022-08-19T09:54:31;22.55;;;17.45;;
73697;SDS011;62004;42.566;23.164;2022-08-19T09:56:58;31.83;;;23.55;;
73697;SDS011;62004;42.566;23.164;2022-08-19T09:59:28;18.40;;;15.32;;
73697;SDS011;62004;42.566;23.164;2022-08-19T10:01:54;17.33;;;13.75;;
73697;SDS011;62004;42.566;23.164;2022-08-19T10:04:19;12.50;;;9.23;;
73697;SDS011;62004;42.566;23.164;2022-08-19T10:06:46;24.83;;;17.63;;
73697;SDS011;62004;42.566;23.164;2022-08-19T10:09:13;14.40;;;12.93;;
73697;SDS011;62004;42.566;23.164;2022-08-19T10:11:40;17.38;;;14.82;;
73697;SDS011;62004;42.566;23.164;2022-08-19T10:14:06;7.72;;;6.75;;
73697;SDS011;62004;42.566;23.164;2022-08-19T10:16:32;30.35;;;24.73;;
73697;SDS011;62004;42.566;23.164;2022-08-19T10:18:58;17.52;;;14.27;;
73697;SDS011;62004;42.566;23.164;2022-08-19T10:21:28;23.63;;;19.70;;
73697;SDS011;62004;42.566;23.164;2022-08-19T10:23:56;13.02;;;10.85;;
73697;SDS011;62004;42.566;23.164;2022-08-19T10:26:26;6.57;;;5.28;;
73697;SDS011;62004;42.566;23.164;2022-08-19T10:28:53;6.38;;;4.55;;
73697;SDS011;62004;42.566;23.164;2022-08-19T10:31:21;4.20;;;3.83;;
73697;SDS011;62004;42.566;23.164;2022-08-19T10:33:48;5.05;;;3.55;;
73697;SDS011;62004;42.566;23.164;2022-08-19T10:36:19;4.07;;;3.70;;
73697;SDS011;62004;42.566;23.164;2022-08-19T10:38:49;5.78;;;3.65;;
73697;SDS011;62004;42.566;23.164;2022-08-19T10:41:23;5.88;;;3.78;;
73697;SDS011;62004;42.566;23.164;2022-08-19T10:43:57;6.85;;;4.35;;
73697;SDS011;62004;42.566;23.164;2022-08-19T10:46:27;4.63;;;4.13;;
73697;SDS011;62004;42.566;23.164;2022-08-19T10:48:53;6.22;;;4.47;;
73697;SDS011;62004;42.566;23.164;2022-08-19T10:51:19;5.35;;;4.03;;
73697;SDS011;62004;42.566;23.164;2022-08-19T10:54:04;5.88;;;4.30;;
73697;SDS011;62004;42.566;23.164;2022-08-19T10:56:29;5.53;;;4.30;;
73697;SDS011;62004;42.566;23.164;2022-08-19T10:59:14;4.63;;;4.00;;
73697;SDS011;62004;42.566;23.164;2022-08-19T11:01:42;5.43;;;4.55;;
73697;SDS011;62004;42.566;23.164;2022-08-19T11:04:08;9.48;;;4.60;;
73697;SDS011;62004;42.566;23.164;2022-08-19T11:06:36;12.23;;;4.75;;
73697;SDS011;62004;42.566;23.164;2022-08-19T11:09:03;9.90;;;5.28;;
73697;SDS011;62004;42.566;23.164;2022-08-19T11:11:29;4.80;;;4.38;;
73697;SDS011;62004;42.566;23.164;2022-08-19T11:13:57;6.97;;;4.50;;
73697;SDS011;62004;42.566;23.164;2022-08-19T11:16:23;6.10;;;4.05;;
73697;SDS011;62004;42.566;23.164;2022-08-19T11:18:52;5.60;;;4.82;;
73697;SDS011;62004;42.566;23.164;2022-08-19T11:21:20;6.38;;;4.80;;
73697;SDS011;62004;42.566;23.164;2022-08-19T11:23:50;7.50;;;4.35;;
73697;SDS011;62004;42.566;23.164;2022-08-19T11:26:17;7.68;;;5.00;;
73697;SDS011;62004;42.566;23.164;2022-08-19T11:28:44;5.50;;;4.70;;
73697;SDS011;62004;42.566;23.164;2022-08-19T11:31:10;5.53;;;4.40;;
73697;SDS011;62004;42.566;23.164;2022-08-19T11:33:37;6.40;;;5.03;;
73697;SDS011;62004;42.566;23.164;2022-08-19T11:36:03;6.88;;;4.30;;
73697;SDS011;62004;42.566;23.164;2022-08-19T11:38:29;4.50;;;4.13;;
73697;SDS011;62004;42.566;23.164;2022-08-19T11:40:59;9.13;;;4.47;;
73697;SDS011;62004;42.566;23.164;2022-08-19T11:43:26;4.70;;;4.30;;
73697;SDS011;62004;42.566;23.164;2022-08-19T11:45:55;7.82;;;4.70;;
73697;SDS011;62004;42.566;23.164;2022-08-19T11:48:20;5.88;;;4.90;;
73697;SDS011;62004;42.566;23.164;2022-08-19T11:50:50;11.55;;;4.40;;
73697;SDS011;62004;42.566;23.164;2022-08-19T11:53:21;6.18;;;4.38;;
73697;SDS011;62004;42.566;23.164;2022-08-19T11:55:48;9.15;;;4.93;;
73697;SDS011;62004;42.566;23.164;2022-08-19T11:58:14;8.80;;;4.80;;
73697;SDS011;62004;42.566;23.164;2022-08-19T12:00:40;4.97;;;4.22;;
73697;SDS011;62004;42.566;23.164;2022-08-19T12:03:06;5.13;;;4.07;;
73697;SDS011;62004;42.566;23.164;2022-08-19T12:05:32;5.57;;;4.15;;
73697;SDS011;62004;42.566;23.164;2022-08-19T12:07:57;6.95;;;4.68;;
73697;SDS011;62004;42.566;23.164;2022-08-19T12:10:23;6.25;;;4.82;;
73697;SDS011;62004;42.566;23.164;2022-08-19T12:12:48;6.80;;;4.43;;
73697;SDS011;62004;42.566;23.164;2022-08-19T12:15:14;5.55;;;4.93;;
73697;SDS011;62004;42.566;23.164;2022-08-19T12:17:40;5.47;;;4.70;;
73697;SDS011;62004;42.566;23.164;2022-08-19T12:20:07;8.40;;;4.55;;
73697;SDS011;62004;42.566;23.164;2022-08-19T12:22:35;7.25;;;4.70;;
73697;SDS011;62004;42.566;23.164;2022-08-19T12:25:02;7.47;;;4.82;;
73697;SDS011;62004;42.566;23.164;2022-08-19T12:27:28;5.72;;;4.40;;
73697;SDS011;62004;42.566;23.164;2022-08-19T12:29:53;5.80;;;4.10;;
73697;SDS011;62004;42.566;23.164;2022-08-19T12:32:19;8.07;;;3.78;;
73697;SDS011;62004;42.566;23.164;2022-08-19T12:34:44;6.20;;;4.43;;
73697;SDS011;62004;42.566;23.164;2022-08-19T12:37:12;6.75;;;4.18;;
73697;SDS011;62004;42.566;23.164;2022-08-19T12:39:39;5.75;;;4.15;;
73697;SDS011;62004;42.566;23.164;2022-08-19T12:42:07;6.55;;;3.80;;
73697;SDS011;62004;42.566;23.164;2022-08-19T12:44:34;7.40;;;3.97;;
73697;SDS011;62004;42.566;23.164;2022-08-19T12:47:00;7.25;;;4.70;;
73697;SDS011;62004;42.566;23.164;2022-08-19T12:49:28;6.70;;;4.70;;
73697;SDS011;62004;42.566;23.164;2022-08-19T12:51:54;6.32;;;4.18;;
73697;SDS011;62004;42.566;23.164;2022-08-19T12:54:19;10.60;;;4.57;;
73697;SDS011;62004;42.566;23.164;2022-08-19T12:56:45;5.25;;;4.55;;
73697;SDS011;62004;42.566;23.164;2022-08-19T12:59:10;7.28;;;4.78;;
73697;SDS011;62004;42.566;23.164;2022-08-19T13:01:37;5.13;;;4.63;;
73697;SDS011;62004;42.566;23.164;2022-08-19T13:04:03;5.72;;;5.00;;
73697;SDS011;62004;42.566;23.164;2022-08-19T13:06:28;5.65;;;5.05;;
73697;SDS011;62004;42.566;23.164;2022-08-19T13:08:54;5.13;;;4.47;;
73697;SDS011;62004;42.566;23.164;2022-08-19T13:11:20;10.25;;;4.40;;
73697;SDS011;62004;42.566;23.164;2022-08-19T13:13:49;7.03;;;4.55;;
73697;SDS011;62004;42.566;23.164;2022-08-19T13:16:15;7.88;;;4.22;;
73697;SDS011;62004;42.566;23.164;2022-08-19T13:18:42;5.63;;;4.88;;
73697;SDS011;62004;42.566;23.164;2022-08-19T13:21:09;5.13;;;4.53;;
73697;SDS011;62004;42.566;23.164;2022-08-19T13:23:39;5.53;;;4.78;;
73697;SDS011;62004;42.566;23.164;2022-08-19T13:26:06;7.07;;;4.53;;
73697;SDS011;62004;42.566;23.164;2022-08-19T13:28:33;5.38;;;4.82;;
73697;SDS011;62004;42.566;23.164;2022-08-19T13:31:19;7.10;;;4.30;;
73697;SDS011;62004;42.566;23.164;2022-08-19T13:34:04;7.57;;;4.43;;
73697;SDS011;62004;42.566;23.164;2022-08-19T13:36:31;6.10;;;4.18;;
73697;SDS011;62004;42.566;23.164;2022-08-19T13:38:57;5.82;;;4.50;;
73697;SDS011;62004;42.566;23.164;2022-08-19T13:41:23;5.07;;;4.30;;
73697;SDS011;62004;42.566;23.164;2022-08-19T13:43:48;5.93;;;3.97;;
73697;SDS011;62004;42.566;23.164;2022-08-19T13:46:14;6.82;;;4.65;;
73697;SDS011;62004;42.566;23.164;2022-08-19T13:48:40;9.05;;;4.60;;
73697;SDS011;62004;42.566;23.164;2022-08-19T13:51:06;7.88;;;4.13;;
73697;SDS011;62004;42.566;23.164;2022-08-19T13:53:34;6.97;;;4.68;;
73697;SDS011;62004;42.566;23.164;2022-08-19T13:56:04;5.78;;;4.07;;
73697;SDS011;62004;42.566;23.164;2022-08-19T13:58:30;8.90;;;4.80;;
73697;SDS011;62004;42.566;23.164;2022-08-19T14:00:56;5.78;;;5.13;;
73697;SDS011;62004;42.566;23.164;2022-08-19T14:03:22;6.75;;;4.63;;
73697;SDS011;62004;42.566;23.164;2022-08-19T14:05:48;7.35;;;4.57;;
73697;SDS011;62004;42.566;23.164;2022-08-19T14:08:14;6.63;;;4.20;;
73697;SDS011;62004;42.566;23.164;2022-08-19T14:10:40;8.60;;;4.93;;
73697;SDS011;62004;42.566;23.164;2022-08-19T14:13:05;6.97;;;4.57;;
73697;SDS011;62004;42.566;23.164;2022-08-19T14:15:31;5.65;;;3.80;;
73697;SDS011;62004;42.566;23.164;2022-08-19T14:17:57;9.75;;;4.05;;
73697;SDS011;62004;42.566;23.164;2022-08-19T14:20:23;15.07;;;4.68;;
73697;SDS011;62004;42.566;23.164;2022-08-19T14:22:48;6.38;;;3.80;;
73697;SDS011;62004;42.566;23.164;2022-08-19T14:25:16;6.07;;;4.20;;
73697;SDS011;62004;42.566;23.164;2022-08-19T14:30:10;7.65;;;4.28;;
73697;SDS011;62004;42.566;23.164;2022-08-19T14:32:39;11.38;;;4.85;;
73697;SDS011;62004;42.566;23.164;2022-08-19T14:35:05;11.52;;;4.82;;
73697;SDS011;62004;42.566;23.164;2022-08-19T14:37:32;6.68;;;4.10;;
73697;SDS011;62004;42.566;23.164;2022-08-19T14:39:58;9.55;;;4.80;;
73697;SDS011;62004;42.566;23.164;2022-08-19T14:42:24;5.53;;;4.72;;
73697;SDS011;62004;42.566;23.164;2022-08-19T14:44:49;8.57;;;4.20;;
73697;SDS011;62004;42.566;23.164;2022-08-19T14:47:15;5.80;;;4.63;;